sensor_id;sensor_type;location;lat;lon;timestamp;P1;durP1;ratioP1;P2;durP2;ratioP2
78116;SDS011;69042;59.120;37.904;2024-02-15T00:01:44;2.25;;;0.93;;
78116;SDS011;69042;59.120;37.904;2024-02-15T00:06:36;3.15;;;1.38;;
78116;SDS011;69042;59.120;37.904;2024-02-15T00:09:03;4.85;;;1.73;;
78116;SDS011;69042;59.120;37.904;2024-02-15T00:11:29;3.70;;;1.48;;
78116;SDS011;69042;59.120;37.904;2024-02-15T00:13:55;3.92;;;1.52;;
78116;SDS011;69042;59.120;37.904;2024-02-15T00:16:22;3.90;;;1.38;;
78116;SDS011;69042;59.120;37.904;2024-02-15T00:18:48;3.17;;;1.50;;
78116;SDS011;69042;59.120;37.904;2024-02-15T00:21:15;3.40;;;1.65;;
78116;SDS011;69042;59.120;37.904;2024-02-15T00:23:41;4.40;;;1.52;;
78116;SDS011;69042;59.120;37.904;2024-02-15T00:26:08;5.65;;;2.45;;
78116;SDS011;69042;59.120;37.904;2024-02-15T00:28:37;2.58;;;1.20;;
78116;SDS011;69042;59.120;37.904;2024-02-15T00:31:03;4.47;;;1.75;;
78116;SDS011;69042;59.120;37.904;2024-02-15T00:33:30;3.72;;;1.70;;
78116;SDS011;69042;59.120;37.904;2024-02-15T00:35:56;3.17;;;1.38;;
78116;SDS011;69042;59.120;37.904;2024-02-15T00:38:22;5.53;;;2.13;;
78116;SDS011;69042;59.120;37.904;2024-02-15T00:40:49;3.83;;;1.45;;
78116;SDS011;69042;59.120;37.904;2024-02-15T00:43:16;5.82;;;2.00;;
78116;SDS011;69042;59.120;37.904;2024-02-15T00:45:42;5.82;;;1.88;;
78116;SDS011;69042;59.120;37.904;2024-02-15T00:48:08;4.53;;;1.65;;
78116;SDS011;69042;59.120;37.904;2024-02-15T00:50:35;4.22;;;1.77;;
78116;SDS011;69042;59.120;37.904;2024-02-15T00:53:01;5.15;;;1.73;;
78116;SDS011;69042;59.120;37.904;2024-02-15T00:55:28;1.67;;;0.82;;
78116;SDS011;69042;59.120;37.904;2024-02-15T00:57:54;4.40;;;1.60;;
78116;SDS011;69042;59.120;37.904;2024-02-15T01:00:20;3.33;;;1.50;;
78116;SDS011;69042;59.120;37.904;2024-02-15T01:02:46;3.38;;;1.73;;
78116;SDS011;69042;59.120;37.904;2024-02-15T01:05:13;5.22;;;1.50;;
78116;SDS011;69042;59.120;37.904;2024-02-15T01:07:41;3.20;;;1.15;;
78116;SDS011;69042;59.120;37.904;2024-02-15T01:10:07;4.70;;;1.70;;
78116;SDS011;69042;59.120;37.904;2024-02-15T01:12:34;5.03;;;2.08;;
78116;SDS011;69042;59.120;37.904;2024-02-15T01:15:00;3.15;;;1.30;;
78116;SDS011;69042;59.120;37.904;2024-02-15T01:17:27;3.97;;;1.42;;
78116;SDS011;69042;59.120;37.904;2024-02-15T01:19:53;4.45;;;1.83;;
78116;SDS011;69042;59.120;37.904;2024-02-15T01:22:19;4.28;;;1.60;;
78116;SDS011;69042;59.120;37.904;2024-02-15T01:24:46;3.72;;;1.45;;
78116;SDS011;69042;59.120;37.904;2024-02-15T01:27:12;2.58;;;1.05;;
78116;SDS011;69042;59.120;37.904;2024-02-15T01:29:39;5.40;;;1.70;;
78116;SDS011;69042;59.120;37.904;2024-02-15T01:32:05;3.47;;;1.42;;
78116;SDS011;69042;59.120;37.904;2024-02-15T01:34:31;5.38;;;1.40;;
78116;SDS011;69042;59.120;37.904;2024-02-15T01:36:58;5.03;;;1.83;;
78116;SDS011;69042;59.120;37.904;2024-02-15T01:39:24;4.40;;;1.80;;
78116;SDS011;69042;59.120;37.904;2024-02-15T01:41:50;4.22;;;2.10;;
78116;SDS011;69042;59.120;37.904;2024-02-15T01:44:18;4.80;;;2.00;;
78116;SDS011;69042;59.120;37.904;2024-02-15T01:46:47;2.72;;;1.38;;
78116;SDS011;69042;59.120;37.904;2024-02-15T01:49:14;6.80;;;2.33;;
78116;SDS011;69042;59.120;37.904;2024-02-15T01:51:41;4.25;;;1.85;;
78116;SDS011;69042;59.120;37.904;2024-02-15T01:54:10;4.38;;;2.22;;
78116;SDS011;69042;59.120;37.904;2024-02-15T01:56:38;5.30;;;1.65;;
78116;SDS011;69042;59.120;37.904;2024-02-15T01:59:04;3.05;;;1.27;;
78116;SDS011;69042;59.120;37.904;2024-02-15T02:01:32;4.60;;;1.52;;
78116;SDS011;69042;59.120;37.904;2024-02-15T02:03:59;3.30;;;1.60;;
78116;SDS011;69042;59.120;37.904;2024-02-15T02:06:26;3.97;;;1.33;;
78116;SDS011;69042;59.120;37.904;2024-02-15T02:08:52;4.90;;;2.95;;
78116;SDS011;69042;59.120;37.904;2024-02-15T02:11:22;6.18;;;2.05;;
78116;SDS011;69042;59.120;37.904;2024-02-15T02:13:49;3.35;;;1.60;;
78116;SDS011;69042;59.120;37.904;2024-02-15T02:16:33;5.43;;;1.55;;
78116;SDS011;69042;59.120;37.904;2024-02-15T02:19:01;2.65;;;1.27;;
78116;SDS011;69042;59.120;37.904;2024-02-15T02:21:28;1.75;;;1.00;;
78116;SDS011;69042;59.120;37.904;2024-02-15T02:23:57;2.10;;;1.13;;
78116;SDS011;69042;59.120;37.904;2024-02-15T02:26:24;4.50;;;1.77;;
78116;SDS011;69042;59.120;37.904;2024-02-15T02:28:51;4.85;;;1.50;;
78116;SDS011;69042;59.120;37.904;2024-02-15T02:31:20;4.60;;;1.77;;
78116;SDS011;69042;59.120;37.904;2024-02-15T02:33:50;3.65;;;1.40;;
78116;SDS011;69042;59.120;37.904;2024-02-15T02:36:18;5.60;;;1.80;;
78116;SDS011;69042;59.120;37.904;2024-02-15T02:38:45;3.00;;;1.55;;
78116;SDS011;69042;59.120;37.904;2024-02-15T02:41:11;3.17;;;1.15;;
78116;SDS011;69042;59.120;37.904;2024-02-15T02:43:40;4.80;;;1.80;;
78116;SDS011;69042;59.120;37.904;2024-02-15T02:46:09;3.85;;;1.75;;
78116;SDS011;69042;59.120;37.904;2024-02-15T02:51:03;4.32;;;2.00;;
78116;SDS011;69042;59.120;37.904;2024-02-15T02:53:29;6.68;;;1.67;;
78116;SDS011;69042;59.120;37.904;2024-02-15T02:55:56;4.20;;;1.73;;
78116;SDS011;69042;59.120;37.904;2024-02-15T02:58:22;4.40;;;1.58;;
78116;SDS011;69042;59.120;37.904;2024-02-15T03:00:49;7.30;;;3.13;;
78116;SDS011;69042;59.120;37.904;2024-02-15T03:03:16;3.42;;;1.40;;
78116;SDS011;69042;59.120;37.904;2024-02-15T03:05:42;4.55;;;2.25;;
78116;SDS011;69042;59.120;37.904;2024-02-15T03:08:08;2.45;;;1.02;;
78116;SDS011;69042;59.120;37.904;2024-02-15T03:10:35;6.35;;;2.08;;
78116;SDS011;69042;59.120;37.904;2024-02-15T03:13:01;7.55;;;2.25;;
78116;SDS011;69042;59.120;37.904;2024-02-15T03:15:28;4.35;;;1.70;;
78116;SDS011;69042;59.120;37.904;2024-02-15T03:17:54;2.70;;;1.38;;
78116;SDS011;69042;59.120;37.904;2024-02-15T03:20:20;5.50;;;1.98;;
78116;SDS011;69042;59.120;37.904;2024-02-15T03:22:53;4.38;;;1.92;;
78116;SDS011;69042;59.120;37.904;2024-02-15T03:25:20;1.20;;;0.68;;
78116;SDS011;69042;59.120;37.904;2024-02-15T03:27:51;4.60;;;2.00;;
78116;SDS011;69042;59.120;37.904;2024-02-15T03:30:18;4.57;;;1.73;;
78116;SDS011;69042;59.120;37.904;2024-02-15T03:32:46;4.88;;;1.98;;
78116;SDS011;69042;59.120;37.904;2024-02-15T03:35:17;4.55;;;2.17;;
78116;SDS011;69042;59.120;37.904;2024-02-15T03:37:43;4.22;;;1.52;;
78116;SDS011;69042;59.120;37.904;2024-02-15T03:40:11;4.28;;;1.48;;
78116;SDS011;69042;59.120;37.904;2024-02-15T03:42:37;8.65;;;1.73;;
78116;SDS011;69042;59.120;37.904;2024-02-15T03:45:04;4.90;;;2.05;;
78116;SDS011;69042;59.120;37.904;2024-02-15T03:47:35;4.32;;;1.25;;
78116;SDS011;69042;59.120;37.904;2024-02-15T03:50:04;4.57;;;2.00;;
78116;SDS011;69042;59.120;37.904;2024-02-15T03:52:32;5.18;;;2.25;;
78116;SDS011;69042;59.120;37.904;2024-02-15T03:54:58;7.78;;;2.13;;
78116;SDS011;69042;59.120;37.904;2024-02-15T03:57:25;5.13;;;1.98;;
78116;SDS011;69042;59.120;37.904;2024-02-15T03:59:52;5.15;;;1.73;;
78116;SDS011;69042;59.120;37.904;2024-02-15T04:02:20;5.20;;;1.73;;
78116;SDS011;69042;59.120;37.904;2024-02-15T04:04:49;8.85;;;2.50;;
78116;SDS011;69042;59.120;37.904;2024-02-15T04:07:18;6.25;;;2.20;;
78116;SDS011;69042;59.120;37.904;2024-02-15T04:09:45;5.65;;;2.25;;
78116;SDS011;69042;59.120;37.904;2024-02-15T04:12:11;5.97;;;2.10;;
78116;SDS011;69042;59.120;37.904;2024-02-15T04:14:40;4.93;;;2.53;;
78116;SDS011;69042;59.120;37.904;2024-02-15T04:17:06;4.30;;;1.85;;
78116;SDS011;69042;59.120;37.904;2024-02-15T04:19:33;3.75;;;1.45;;
78116;SDS011;69042;59.120;37.904;2024-02-15T04:22:02;2.03;;;1.02;;
78116;SDS011;69042;59.120;37.904;2024-02-15T04:24:33;6.18;;;2.10;;
78116;SDS011;69042;59.120;37.904;2024-02-15T04:27:00;5.72;;;2.65;;
78116;SDS011;69042;59.120;37.904;2024-02-15T04:29:27;5.30;;;2.38;;
78116;SDS011;69042;59.120;37.904;2024-02-15T04:31:53;4.90;;;1.50;;
78116;SDS011;69042;59.120;37.904;2024-02-15T04:34:20;5.85;;;2.05;;
78116;SDS011;69042;59.120;37.904;2024-02-15T04:36:47;5.50;;;2.13;;
78116;SDS011;69042;59.120;37.904;2024-02-15T04:39:16;3.67;;;1.70;;
78116;SDS011;69042;59.120;37.904;2024-02-15T04:41:56;6.60;;;2.35;;
78116;SDS011;69042;59.120;37.904;2024-02-15T04:44:23;7.75;;;2.38;;
78116;SDS011;69042;59.120;37.904;2024-02-15T04:46:53;4.75;;;1.95;;
78116;SDS011;69042;59.120;37.904;2024-02-15T04:49:20;6.57;;;2.45;;
78116;SDS011;69042;59.120;37.904;2024-02-15T04:51:46;6.57;;;2.50;;
78116;SDS011;69042;59.120;37.904;2024-02-15T04:54:15;4.95;;;2.35;;
78116;SDS011;69042;59.120;37.904;2024-02-15T04:56:43;3.90;;;1.48;;
78116;SDS011;69042;59.120;37.904;2024-02-15T04:59:10;4.10;;;1.77;;
78116;SDS011;69042;59.120;37.904;2024-02-15T05:01:41;4.13;;;1.83;;
78116;SDS011;69042;59.120;37.904;2024-02-15T05:04:11;5.43;;;2.25;;
78116;SDS011;69042;59.120;37.904;2024-02-15T05:06:39;5.88;;;2.38;;
78116;SDS011;69042;59.120;37.904;2024-02-15T05:09:06;6.85;;;2.47;;
78116;SDS011;69042;59.120;37.904;2024-02-15T05:11:38;5.57;;;2.45;;
78116;SDS011;69042;59.120;37.904;2024-02-15T05:14:12;7.32;;;2.60;;
78116;SDS011;69042;59.120;37.904;2024-02-15T05:16:43;7.95;;;2.70;;
78116;SDS011;69042;59.120;37.904;2024-02-15T05:19:10;5.18;;;2.20;;
78116;SDS011;69042;59.120;37.904;2024-02-15T05:21:39;7.97;;;3.75;;
78116;SDS011;69042;59.120;37.904;2024-02-15T05:24:06;6.53;;;3.05;;
78116;SDS011;69042;59.120;37.904;2024-02-15T05:26:32;10.05;;;3.25;;
78116;SDS011;69042;59.120;37.904;2024-02-15T05:28:58;8.88;;;2.97;;
78116;SDS011;69042;59.120;37.904;2024-02-15T05:31:25;11.98;;;5.22;;
78116;SDS011;69042;59.120;37.904;2024-02-15T05:33:52;13.20;;;4.38;;
78116;SDS011;69042;59.120;37.904;2024-02-15T05:36:20;8.00;;;3.53;;
78116;SDS011;69042;59.120;37.904;2024-02-15T05:38:48;8.15;;;3.05;;
78116;SDS011;69042;59.120;37.904;2024-02-15T05:41:16;8.55;;;3.63;;
78116;SDS011;69042;59.120;37.904;2024-02-15T05:43:43;8.07;;;3.42;;
78116;SDS011;69042;59.120;37.904;2024-02-15T05:46:09;4.70;;;2.08;;
78116;SDS011;69042;59.120;37.904;2024-02-15T05:48:36;6.95;;;3.08;;
78116;SDS011;69042;59.120;37.904;2024-02-15T05:51:05;6.22;;;2.35;;
78116;SDS011;69042;59.120;37.904;2024-02-15T05:53:32;8.00;;;2.95;;
78116;SDS011;69042;59.120;37.904;2024-02-15T05:56:04;6.45;;;2.22;;
78116;SDS011;69042;59.120;37.904;2024-02-15T05:58:32;6.68;;;2.33;;
78116;SDS011;69042;59.120;37.904;2024-02-15T06:00:59;7.05;;;2.83;;
78116;SDS011;69042;59.120;37.904;2024-02-15T06:03:28;6.90;;;2.13;;
78116;SDS011;69042;59.120;37.904;2024-02-15T06:05:54;6.00;;;2.15;;
78116;SDS011;69042;59.120;37.904;2024-02-15T06:08:24;6.93;;;2.88;;
78116;SDS011;69042;59.120;37.904;2024-02-15T06:10:51;6.43;;;2.15;;
78116;SDS011;69042;59.120;37.904;2024-02-15T06:13:21;4.22;;;1.42;;
78116;SDS011;69042;59.120;37.904;2024-02-15T06:15:49;5.60;;;2.75;;
78116;SDS011;69042;59.120;37.904;2024-02-15T06:18:19;5.28;;;1.52;;
78116;SDS011;69042;59.120;37.904;2024-02-15T06:20:54;6.15;;;2.42;;
78116;SDS011;69042;59.120;37.904;2024-02-15T06:23:25;5.80;;;2.22;;
78116;SDS011;69042;59.120;37.904;2024-02-15T06:25:53;7.75;;;2.22;;
78116;SDS011;69042;59.120;37.904;2024-02-15T06:28:22;7.32;;;2.53;;
78116;SDS011;69042;59.120;37.904;2024-02-15T06:31:07;6.60;;;2.38;;
78116;SDS011;69042;59.120;37.904;2024-02-15T06:33:52;7.68;;;2.83;;
78116;SDS011;69042;59.120;37.904;2024-02-15T06:36:40;4.40;;;2.30;;
78116;SDS011;69042;59.120;37.904;2024-02-15T06:39:30;7.60;;;3.22;;
78116;SDS011;69042;59.120;37.904;2024-02-15T06:42:11;6.22;;;2.42;;
78116;SDS011;69042;59.120;37.904;2024-02-15T06:44:48;3.55;;;1.58;;
78116;SDS011;69042;59.120;37.904;2024-02-15T06:47:14;4.65;;;1.85;;
78116;SDS011;69042;59.120;37.904;2024-02-15T06:49:43;5.85;;;1.90;;
78116;SDS011;69042;59.120;37.904;2024-02-15T06:52:11;6.18;;;2.15;;
78116;SDS011;69042;59.120;37.904;2024-02-15T06:54:41;6.68;;;1.92;;
78116;SDS011;69042;59.120;37.904;2024-02-15T06:57:07;4.13;;;1.50;;
78116;SDS011;69042;59.120;37.904;2024-02-15T06:59:34;6.32;;;1.85;;
78116;SDS011;69042;59.120;37.904;2024-02-15T07:02:01;6.18;;;2.72;;
78116;SDS011;69042;59.120;37.904;2024-02-15T07:04:30;4.82;;;2.35;;
78116;SDS011;69042;59.120;37.904;2024-02-15T07:06:58;5.10;;;1.90;;
78116;SDS011;69042;59.120;37.904;2024-02-15T07:09:25;4.13;;;1.83;;
78116;SDS011;69042;59.120;37.904;2024-02-15T07:11:52;7.05;;;2.35;;
78116;SDS011;69042;59.120;37.904;2024-02-15T07:14:18;4.97;;;2.17;;
78116;SDS011;69042;59.120;37.904;2024-02-15T07:16:45;6.22;;;2.50;;
78116;SDS011;69042;59.120;37.904;2024-02-15T07:19:13;3.72;;;1.50;;
78116;SDS011;69042;59.120;37.904;2024-02-15T07:21:39;6.47;;;2.55;;
78116;SDS011;69042;59.120;37.904;2024-02-15T07:24:06;7.28;;;2.40;;
78116;SDS011;69042;59.120;37.904;2024-02-15T07:26:32;6.82;;;1.90;;
78116;SDS011;69042;59.120;37.904;2024-02-15T07:29:01;7.82;;;2.78;;
78116;SDS011;69042;59.120;37.904;2024-02-15T07:31:27;6.18;;;2.58;;
78116;SDS011;69042;59.120;37.904;2024-02-15T07:33:55;5.65;;;2.30;;
78116;SDS011;69042;59.120;37.904;2024-02-15T07:36:21;6.07;;;2.45;;
78116;SDS011;69042;59.120;37.904;2024-02-15T07:38:49;4.90;;;2.38;;
78116;SDS011;69042;59.120;37.904;2024-02-15T07:41:22;5.45;;;1.73;;
78116;SDS011;69042;59.120;37.904;2024-02-15T07:43:50;4.25;;;1.98;;
78116;SDS011;69042;59.120;37.904;2024-02-15T07:46:21;5.13;;;2.50;;
78116;SDS011;69042;59.120;37.904;2024-02-15T07:48:47;5.53;;;2.03;;
78116;SDS011;69042;59.120;37.904;2024-02-15T07:51:17;4.13;;;1.50;;
78116;SDS011;69042;59.120;37.904;2024-02-15T07:53:44;2.83;;;1.55;;
78116;SDS011;69042;59.120;37.904;2024-02-15T07:56:10;6.57;;;2.38;;
78116;SDS011;69042;59.120;37.904;2024-02-15T07:58:38;6.82;;;3.35;;
78116;SDS011;69042;59.120;37.904;2024-02-15T08:01:08;7.25;;;2.75;;
78116;SDS011;69042;59.120;37.904;2024-02-15T08:03:37;4.47;;;1.98;;
78116;SDS011;69042;59.120;37.904;2024-02-15T08:06:03;6.60;;;2.75;;
78116;SDS011;69042;59.120;37.904;2024-02-15T08:08:33;6.68;;;3.05;;
78116;SDS011;69042;59.120;37.904;2024-02-15T08:11:02;6.47;;;2.05;;
78116;SDS011;69042;59.120;37.904;2024-02-15T08:13:29;6.45;;;2.25;;
78116;SDS011;69042;59.120;37.904;2024-02-15T08:15:56;5.55;;;2.38;;
78116;SDS011;69042;59.120;37.904;2024-02-15T08:18:22;7.63;;;2.95;;
78116;SDS011;69042;59.120;37.904;2024-02-15T08:20:48;5.25;;;2.13;;
78116;SDS011;69042;59.120;37.904;2024-02-15T08:23:15;6.28;;;2.67;;
78116;SDS011;69042;59.120;37.904;2024-02-15T08:25:41;7.07;;;2.63;;
78116;SDS011;69042;59.120;37.904;2024-02-15T08:28:07;6.60;;;2.78;;
78116;SDS011;69042;59.120;37.904;2024-02-15T08:30:34;6.35;;;2.60;;
78116;SDS011;69042;59.120;37.904;2024-02-15T08:33:00;9.43;;;3.05;;
78116;SDS011;69042;59.120;37.904;2024-02-15T08:35:26;6.18;;;2.38;;
78116;SDS011;69042;59.120;37.904;2024-02-15T08:37:53;7.15;;;2.50;;
78116;SDS011;69042;59.120;37.904;2024-02-15T08:40:20;6.63;;;2.53;;
78116;SDS011;69042;59.120;37.904;2024-02-15T08:42:50;6.25;;;2.58;;
78116;SDS011;69042;59.120;37.904;2024-02-15T08:45:17;7.75;;;3.05;;
78116;SDS011;69042;59.120;37.904;2024-02-15T08:47:43;5.30;;;2.08;;
78116;SDS011;69042;59.120;37.904;2024-02-15T08:50:11;7.10;;;2.70;;
78116;SDS011;69042;59.120;37.904;2024-02-15T08:52:38;8.05;;;3.60;;
78116;SDS011;69042;59.120;37.904;2024-02-15T08:55:05;10.25;;;3.28;;
78116;SDS011;69042;59.120;37.904;2024-02-15T08:57:33;6.03;;;2.60;;
78116;SDS011;69042;59.120;37.904;2024-02-15T08:59:59;8.75;;;3.03;;
78116;SDS011;69042;59.120;37.904;2024-02-15T09:02:26;7.88;;;2.53;;
78116;SDS011;69042;59.120;37.904;2024-02-15T09:04:52;9.82;;;3.63;;
78116;SDS011;69042;59.120;37.904;2024-02-15T09:07:18;6.13;;;2.53;;
78116;SDS011;69042;59.120;37.904;2024-02-15T09:09:46;6.25;;;2.28;;
78116;SDS011;69042;59.120;37.904;2024-02-15T09:12:13;8.80;;;2.53;;
78116;SDS011;69042;59.120;37.904;2024-02-15T09:14:39;7.20;;;2.47;;
78116;SDS011;69042;59.120;37.904;2024-02-15T09:17:05;7.60;;;2.88;;
78116;SDS011;69042;59.120;37.904;2024-02-15T09:19:34;4.65;;;1.67;;
78116;SDS011;69042;59.120;37.904;2024-02-15T09:22:01;6.22;;;2.42;;
78116;SDS011;69042;59.120;37.904;2024-02-15T09:24:33;6.30;;;1.90;;
78116;SDS011;69042;59.120;37.904;2024-02-15T09:27:00;7.82;;;3.22;;
78116;SDS011;69042;59.120;37.904;2024-02-15T09:29:27;7.20;;;3.35;;
78116;SDS011;69042;59.120;37.904;2024-02-15T09:31:56;5.97;;;2.47;;
78116;SDS011;69042;59.120;37.904;2024-02-15T09:34:25;6.90;;;3.00;;
78116;SDS011;69042;59.120;37.904;2024-02-15T09:36:53;6.90;;;2.95;;
78116;SDS011;69042;59.120;37.904;2024-02-15T09:39:25;7.85;;;3.00;;
78116;SDS011;69042;59.120;37.904;2024-02-15T09:41:54;9.32;;;3.38;;
78116;SDS011;69042;59.120;37.904;2024-02-15T09:44:26;6.70;;;2.33;;
78116;SDS011;69042;59.120;37.904;2024-02-15T09:47:06;7.97;;;2.72;;
78116;SDS011;69042;59.120;37.904;2024-02-15T09:49:38;9.70;;;2.88;;
78116;SDS011;69042;59.120;37.904;2024-02-15T09:52:07;7.55;;;2.47;;
78116;SDS011;69042;59.120;37.904;2024-02-15T09:57:17;6.25;;;2.70;;
78116;SDS011;69042;59.120;37.904;2024-02-15T09:59:44;7.03;;;2.83;;
78116;SDS011;69042;59.120;37.904;2024-02-15T10:02:11;8.00;;;3.70;;
78116;SDS011;69042;59.120;37.904;2024-02-15T10:07:10;8.02;;;2.63;;
78116;SDS011;69042;59.120;37.904;2024-02-15T10:09:40;7.30;;;2.95;;
78116;SDS011;69042;59.120;37.904;2024-02-15T10:12:09;8.63;;;3.70;;
78116;SDS011;69042;59.120;37.904;2024-02-15T10:14:46;8.18;;;3.33;;
78116;SDS011;69042;59.120;37.904;2024-02-15T10:17:17;6.47;;;2.22;;
78116;SDS011;69042;59.120;37.904;2024-02-15T10:20:03;6.88;;;3.05;;
78116;SDS011;69042;59.120;37.904;2024-02-15T10:22:32;9.23;;;3.53;;
78116;SDS011;69042;59.120;37.904;2024-02-15T10:25:13;7.30;;;2.70;;
78116;SDS011;69042;59.120;37.904;2024-02-15T10:27:40;5.30;;;2.33;;
78116;SDS011;69042;59.120;37.904;2024-02-15T10:30:14;10.02;;;3.67;;
78116;SDS011;69042;59.120;37.904;2024-02-15T10:32:47;4.72;;;2.33;;
78116;SDS011;69042;59.120;37.904;2024-02-15T10:35:20;5.80;;;2.45;;
78116;SDS011;69042;59.120;37.904;2024-02-15T10:37:52;7.18;;;2.90;;
78116;SDS011;69042;59.120;37.904;2024-02-15T10:40:35;6.82;;;3.15;;
78116;SDS011;69042;59.120;37.904;2024-02-15T10:43:07;7.45;;;3.25;;
78116;SDS011;69042;59.120;37.904;2024-02-15T10:45:35;9.13;;;3.33;;
78116;SDS011;69042;59.120;37.904;2024-02-15T10:48:09;8.40;;;3.47;;
78116;SDS011;69042;59.120;37.904;2024-02-15T10:50:36;11.90;;;3.08;;
78116;SDS011;69042;59.120;37.904;2024-02-15T10:53:26;7.60;;;3.28;;
78116;SDS011;69042;59.120;37.904;2024-02-15T10:58:33;8.10;;;2.83;;
78116;SDS011;69042;59.120;37.904;2024-02-15T11:01:13;7.65;;;2.30;;
78116;SDS011;69042;59.120;37.904;2024-02-15T11:03:50;11.68;;;3.22;;
78116;SDS011;69042;59.120;37.904;2024-02-15T11:06:20;5.95;;;2.92;;
78116;SDS011;69042;59.120;37.904;2024-02-15T11:08:50;5.97;;;2.45;;
78116;SDS011;69042;59.120;37.904;2024-02-15T11:11:18;6.90;;;2.75;;
78116;SDS011;69042;59.120;37.904;2024-02-15T11:22:01;7.20;;;2.97;;
78116;SDS011;69042;59.120;37.904;2024-02-15T11:24:36;4.95;;;2.08;;
78116;SDS011;69042;59.120;37.904;2024-02-15T11:27:05;6.30;;;2.38;;
78116;SDS011;69042;59.120;37.904;2024-02-15T11:29:50;8.60;;;3.10;;
78116;SDS011;69042;59.120;37.904;2024-02-15T11:32:40;7.22;;;3.38;;
78116;SDS011;69042;59.120;37.904;2024-02-15T11:35:19;8.88;;;3.13;;
78116;SDS011;69042;59.120;37.904;2024-02-15T11:37:55;7.53;;;2.83;;
78116;SDS011;69042;59.120;37.904;2024-02-15T11:43:08;6.80;;;2.60;;
78116;SDS011;69042;59.120;37.904;2024-02-15T11:45:37;7.22;;;2.65;;
78116;SDS011;69042;59.120;37.904;2024-02-15T11:48:11;7.40;;;2.60;;
78116;SDS011;69042;59.120;37.904;2024-02-15T11:50:38;8.68;;;2.75;;
78116;SDS011;69042;59.120;37.904;2024-02-15T11:53:09;8.15;;;3.15;;
78116;SDS011;69042;59.120;37.904;2024-02-15T11:55:40;8.25;;;2.80;;
78116;SDS011;69042;59.120;37.904;2024-02-15T11:58:09;6.93;;;2.80;;
78116;SDS011;69042;59.120;37.904;2024-02-15T12:00:59;6.10;;;2.75;;
78116;SDS011;69042;59.120;37.904;2024-02-15T12:03:44;7.63;;;3.00;;
78116;SDS011;69042;59.120;37.904;2024-02-15T12:06:30;6.00;;;2.65;;
78116;SDS011;69042;59.120;37.904;2024-02-15T12:09:19;6.88;;;2.83;;
78116;SDS011;69042;59.120;37.904;2024-02-15T12:12:04;6.07;;;2.47;;
78116;SDS011;69042;59.120;37.904;2024-02-15T12:17:46;5.90;;;2.38;;
78116;SDS011;69042;59.120;37.904;2024-02-15T12:20:33;5.75;;;2.47;;
78116;SDS011;69042;59.120;37.904;2024-02-15T12:23:03;5.53;;;3.00;;
78116;SDS011;69042;59.120;37.904;2024-02-15T12:25:32;6.38;;;2.40;;
78116;SDS011;69042;59.120;37.904;2024-02-15T12:27:59;6.93;;;2.72;;
78116;SDS011;69042;59.120;37.904;2024-02-15T12:30:34;7.28;;;3.03;;
78116;SDS011;69042;59.120;37.904;2024-02-15T12:33:09;7.00;;;2.55;;
78116;SDS011;69042;59.120;37.904;2024-02-15T12:35:39;7.72;;;2.90;;
78116;SDS011;69042;59.120;37.904;2024-02-15T12:38:08;8.85;;;2.92;;
78116;SDS011;69042;59.120;37.904;2024-02-15T12:40:37;7.43;;;3.17;;
78116;SDS011;69042;59.120;37.904;2024-02-15T12:43:07;7.07;;;2.67;;
78116;SDS011;69042;59.120;37.904;2024-02-15T12:45:36;6.10;;;2.22;;
78116;SDS011;69042;59.120;37.904;2024-02-15T12:48:06;8.02;;;2.95;;
78116;SDS011;69042;59.120;37.904;2024-02-15T12:50:34;6.35;;;2.28;;
78116;SDS011;69042;59.120;37.904;2024-02-15T12:53:01;5.63;;;2.17;;
78116;SDS011;69042;59.120;37.904;2024-02-15T12:55:30;7.40;;;2.38;;
78116;SDS011;69042;59.120;37.904;2024-02-15T12:58:01;6.50;;;2.47;;
78116;SDS011;69042;59.120;37.904;2024-02-15T13:00:30;7.28;;;3.25;;
78116;SDS011;69042;59.120;37.904;2024-02-15T13:02:59;5.88;;;2.58;;
78116;SDS011;69042;59.120;37.904;2024-02-15T13:05:30;8.13;;;2.83;;
78116;SDS011;69042;59.120;37.904;2024-02-15T13:07:58;6.72;;;2.78;;
78116;SDS011;69042;59.120;37.904;2024-02-15T13:10:31;7.82;;;2.60;;
78116;SDS011;69042;59.120;37.904;2024-02-15T13:12:58;6.90;;;2.47;;
78116;SDS011;69042;59.120;37.904;2024-02-15T13:15:28;7.75;;;2.72;;
78116;SDS011;69042;59.120;37.904;2024-02-15T13:18:03;7.97;;;3.03;;
78116;SDS011;69042;59.120;37.904;2024-02-15T13:20:35;7.57;;;2.88;;
78116;SDS011;69042;59.120;37.904;2024-02-15T13:23:04;7.35;;;2.80;;
78116;SDS011;69042;59.120;37.904;2024-02-15T13:25:38;11.23;;;3.60;;
78116;SDS011;69042;59.120;37.904;2024-02-15T13:28:08;6.97;;;3.17;;
78116;SDS011;69042;59.120;37.904;2024-02-15T13:30:36;6.68;;;2.78;;
78116;SDS011;69042;59.120;37.904;2024-02-15T13:33:02;5.78;;;2.22;;
78116;SDS011;69042;59.120;37.904;2024-02-15T13:35:29;9.45;;;3.80;;
78116;SDS011;69042;59.120;37.904;2024-02-15T13:37:55;7.72;;;2.40;;
78116;SDS011;69042;59.120;37.904;2024-02-15T13:40:26;8.43;;;2.75;;
78116;SDS011;69042;59.120;37.904;2024-02-15T13:42:57;5.50;;;2.45;;
78116;SDS011;69042;59.120;37.904;2024-02-15T13:45:31;7.95;;;3.13;;
78116;SDS011;69042;59.120;37.904;2024-02-15T13:48:03;7.90;;;2.80;;
78116;SDS011;69042;59.120;37.904;2024-02-15T13:50:33;8.55;;;3.25;;
78116;SDS011;69042;59.120;37.904;2024-02-15T13:53:00;7.50;;;2.80;;
78116;SDS011;69042;59.120;37.904;2024-02-15T13:55:28;8.35;;;3.40;;
78116;SDS011;69042;59.120;37.904;2024-02-15T13:57:55;7.25;;;3.13;;
78116;SDS011;69042;59.120;37.904;2024-02-15T14:00:30;8.77;;;3.45;;
78116;SDS011;69042;59.120;37.904;2024-02-15T14:03:24;7.80;;;3.33;;
78116;SDS011;69042;59.120;37.904;2024-02-15T14:05:50;7.78;;;3.38;;
78116;SDS011;69042;59.120;37.904;2024-02-15T14:08:16;8.43;;;3.03;;
78116;SDS011;69042;59.120;37.904;2024-02-15T14:10:44;10.27;;;3.70;;
78116;SDS011;69042;59.120;37.904;2024-02-15T14:13:13;8.45;;;3.03;;
78116;SDS011;69042;59.120;37.904;2024-02-15T14:15:40;7.90;;;3.05;;
78116;SDS011;69042;59.120;37.904;2024-02-15T14:18:07;8.40;;;3.40;;
78116;SDS011;69042;59.120;37.904;2024-02-15T14:20:44;8.05;;;2.95;;
78116;SDS011;69042;59.120;37.904;2024-02-15T14:23:15;10.50;;;3.80;;
78116;SDS011;69042;59.120;37.904;2024-02-15T14:25:42;6.95;;;2.40;;
78116;SDS011;69042;59.120;37.904;2024-02-15T14:28:10;6.85;;;2.65;;
78116;SDS011;69042;59.120;37.904;2024-02-15T14:30:36;6.85;;;2.70;;
78116;SDS011;69042;59.120;37.904;2024-02-15T14:33:23;8.23;;;2.50;;
78116;SDS011;69042;59.120;37.904;2024-02-15T14:35:50;6.80;;;2.90;;
78116;SDS011;69042;59.120;37.904;2024-02-15T14:38:21;7.03;;;3.03;;
78116;SDS011;69042;59.120;37.904;2024-02-15T14:40:49;8.85;;;3.25;;
78116;SDS011;69042;59.120;37.904;2024-02-15T14:43:23;8.23;;;2.67;;
78116;SDS011;69042;59.120;37.904;2024-02-15T14:45:51;7.65;;;3.00;;
78116;SDS011;69042;59.120;37.904;2024-02-15T14:48:18;7.13;;;2.97;;
78116;SDS011;69042;59.120;37.904;2024-02-15T14:50:46;7.15;;;3.25;;
78116;SDS011;69042;59.120;37.904;2024-02-15T14:53:18;8.32;;;3.65;;
78116;SDS011;69042;59.120;37.904;2024-02-15T14:55:44;7.70;;;3.17;;
78116;SDS011;69042;59.120;37.904;2024-02-15T14:58:15;7.80;;;3.40;;
78116;SDS011;69042;59.120;37.904;2024-02-15T15:00:43;7.30;;;3.17;;
78116;SDS011;69042;59.120;37.904;2024-02-15T15:03:13;7.70;;;3.15;;
78116;SDS011;69042;59.120;37.904;2024-02-15T15:05:40;7.15;;;3.17;;
78116;SDS011;69042;59.120;37.904;2024-02-15T15:08:26;9.80;;;3.53;;
78116;SDS011;69042;59.120;37.904;2024-02-15T15:11:12;9.60;;;3.17;;
78116;SDS011;69042;59.120;37.904;2024-02-15T15:13:57;8.70;;;3.08;;